sensor_id;sensor_type;location;lat;lon;timestamp;pressure;altitude;pressure_sealevel;temperature;humidity
46944;BME280;32678;43.852;25.952;2023-02-24T00:03:34;101472.69;;;10.81;53.24
46944;BME280;32678;43.852;25.952;2023-02-24T00:08:30;101459.44;;;10.87;53.10
46944;BME280;32678;43.852;25.952;2023-02-24T00:13:29;101465.41;;;10.94;53.05
46944;BME280;32678;43.852;25.952;2023-02-24T00:18:26;101455.28;;;10.78;53.32
46944;BME280;32678;43.852;25.952;2023-02-24T00:23:26;101451.47;;;10.92;53.10
46944;BME280;32678;43.852;25.952;2023-02-24T00:28:22;101444.31;;;10.98;52.84
46944;BME280;32678;43.852;25.952;2023-02-24T00:33:20;101435.84;;;10.85;52.86
46944;BME280;32678;43.852;25.952;2023-02-24T00:38:19;101449.72;;;10.91;52.82
46944;BME280;32678;43.852;25.952;2023-02-24T00:43:16;101440.03;;;10.94;52.70
46944;BME280;32678;43.852;25.952;2023-02-24T00:48:13;101434.09;;;10.86;52.87
46944;BME280;32678;43.852;25.952;2023-02-24T00:53:11;101432.94;;;10.98;52.65
46944;BME280;32678;43.852;25.952;2023-02-24T00:58:08;101430.56;;;10.89;52.45
46944;BME280;32678;43.852;25.952;2023-02-24T01:03:07;101423.50;;;10.91;52.87
46944;BME280;32678;43.852;25.952;2023-02-24T01:08:04;101405.06;;;10.94;52.76
46944;BME280;32678;43.852;25.952;2023-02-24T01:13:02;101411.03;;;10.63;53.29
46944;BME280;32678;43.852;25.952;2023-02-24T01:17:58;101414.47;;;10.65;53.46
46944;BME280;32678;43.852;25.952;2023-02-24T01:22:55;101405.75;;;10.65;53.69
46944;BME280;32678;43.852;25.952;2023-02-24T01:27:52;101408.66;;;10.90;53.25
46944;BME280;32678;43.852;25.952;2023-02-24T01:32:50;101394.16;;;11.10;52.99
46944;BME280;32678;43.852;25.952;2023-02-24T01:37:48;101392.44;;;10.74;53.18
46944;BME280;32678;43.852;25.952;2023-02-24T01:42:45;101382.63;;;10.43;53.96
46944;BME280;32678;43.852;25.952;2023-02-24T01:47:44;101389.50;;;10.49;54.16
46944;BME280;32678;43.852;25.952;2023-02-24T01:52:44;101360.66;;;10.49;53.98
46944;BME280;32678;43.852;25.952;2023-02-24T01:57:42;101375.41;;;10.55;53.94
46944;BME280;32678;43.852;25.952;2023-02-24T02:02:42;101366.41;;;10.65;53.71
46944;BME280;32678;43.852;25.952;2023-02-24T02:07:41;101365.59;;;10.63;53.64
46944;BME280;32678;43.852;25.952;2023-02-24T02:12:40;101371.91;;;10.54;53.82
46944;BME280;32678;43.852;25.952;2023-02-24T02:17:42;101369.28;;;10.54;53.90
46944;BME280;32678;43.852;25.952;2023-02-24T02:23:00;101363.97;;;10.57;53.84
46944;BME280;32678;43.852;25.952;2023-02-24T02:28:11;101366.56;;;10.59;53.94
46944;BME280;32678;43.852;25.952;2023-02-24T02:33:25;101356.59;;;10.73;53.60
46944;BME280;32678;43.852;25.952;2023-02-24T02:38:31;101357.31;;;10.79;53.38
46944;BME280;32678;43.852;25.952;2023-02-24T02:43:31;101356.09;;;10.57;53.64
46944;BME280;32678;43.852;25.952;2023-02-24T02:48:30;101353.88;;;10.76;53.27
46944;BME280;32678;43.852;25.952;2023-02-24T02:53:32;101352.09;;;10.79;53.13
46944;BME280;32678;43.852;25.952;2023-02-24T02:58:33;101346.94;;;10.75;53.12
46944;BME280;32678;43.852;25.952;2023-02-24T03:03:32;101348.00;;;10.66;53.21
46944;BME280;32678;43.852;25.952;2023-02-24T03:08:33;101343.38;;;10.77;53.25
46944;BME280;32678;43.852;25.952;2023-02-24T03:13:33;101344.09;;;10.84;52.96
46944;BME280;32678;43.852;25.952;2023-02-24T03:18:33;101344.47;;;10.69;53.21
46944;BME280;32678;43.852;25.952;2023-02-24T03:23:33;101340.00;;;10.72;53.22
46944;BME280;32678;43.852;25.952;2023-02-24T03:28:33;101333.63;;;10.82;52.95
46944;BME280;32678;43.852;25.952;2023-02-24T03:33:34;101336.22;;;10.84;52.58
46944;BME280;32678;43.852;25.952;2023-02-24T03:38:33;101335.09;;;10.59;53.35
46944;BME280;32678;43.852;25.952;2023-02-24T03:43:33;101324.22;;;10.37;54.05
46944;BME280;32678;43.852;25.952;2023-02-24T03:48:33;101326.72;;;10.43;54.40
46944;BME280;32678;43.852;25.952;2023-02-24T03:53:37;101325.69;;;10.50;53.96
46944;BME280;32678;43.852;25.952;2023-02-24T03:58:41;101321.59;;;10.37;55.12
46944;BME280;32678;43.852;25.952;2023-02-24T04:03:45;101321.66;;;10.35;55.32
46944;BME280;32678;43.852;25.952;2023-02-24T04:08:58;101320.44;;;10.50;54.79
46944;BME280;32678;43.852;25.952;2023-02-24T04:14:01;101312.50;;;10.15;55.21
46944;BME280;32678;43.852;25.952;2023-02-24T04:19:02;101309.13;;;10.08;56.01
46944;BME280;32678;43.852;25.952;2023-02-24T04:24:04;101303.00;;;10.09;55.87
46944;BME280;32678;43.852;25.952;2023-02-24T04:29:07;101296.03;;;10.08;56.03
46944;BME280;32678;43.852;25.952;2023-02-24T04:34:05;101291.16;;;10.31;55.36
46944;BME280;32678;43.852;25.952;2023-02-24T04:39:08;101290.78;;;10.48;54.49
46944;BME280;32678;43.852;25.952;2023-02-24T04:44:06;101283.50;;;10.59;54.03
46944;BME280;32678;43.852;25.952;2023-02-24T04:49:03;101279.81;;;10.66;53.91
46944;BME280;32678;43.852;25.952;2023-02-24T04:54:00;101281.53;;;10.69;53.81
46944;BME280;32678;43.852;25.952;2023-02-24T04:58:59;101278.66;;;10.78;53.91
46944;BME280;32678;43.852;25.952;2023-02-24T05:03:56;101274.19;;;10.81;54.14
46944;BME280;32678;43.852;25.952;2023-02-24T05:09:04;101278.94;;;10.67;55.01
46944;BME280;32678;43.852;25.952;2023-02-24T05:14:10;101270.53;;;10.55;55.04
46944;BME280;32678;43.852;25.952;2023-02-24T05:19:09;101266.44;;;10.41;55.40
46944;BME280;32678;43.852;25.952;2023-02-24T05:24:25;101271.16;;;10.64;54.79
46944;BME280;32678;43.852;25.952;2023-02-24T05:29:25;101267.44;;;10.73;54.24
46944;BME280;32678;43.852;25.952;2023-02-24T05:34:24;101279.91;;;10.63;54.16
46944;BME280;32678;43.852;25.952;2023-02-24T05:39:22;101273.28;;;10.49;54.47
46944;BME280;32678;43.852;25.952;2023-02-24T05:44:22;101278.88;;;10.33;54.67
46944;BME280;32678;43.852;25.952;2023-02-24T05:49:22;101282.03;;;10.09;55.44
46944;BME280;32678;43.852;25.952;2023-02-24T05:54:22;101279.50;;;9.66;56.71
46944;BME280;32678;43.852;25.952;2023-02-24T05:59:21;101281.50;;;9.53;57.52
46944;BME280;32678;43.852;25.952;2023-02-24T06:04:18;101277.97;;;9.56;57.66
46944;BME280;32678;43.852;25.952;2023-02-24T06:09:34;101267.78;;;9.82;57.42
46944;BME280;32678;43.852;25.952;2023-02-24T06:14:35;101281.31;;;9.63;57.40
46944;BME280;32678;43.852;25.952;2023-02-24T06:19:32;101271.50;;;9.31;58.39
46944;BME280;32678;43.852;25.952;2023-02-24T06:24:30;101283.03;;;9.21;58.45
46944;BME280;32678;43.852;25.952;2023-02-24T06:29:28;101268.94;;;8.80;60.09
46944;BME280;32678;43.852;25.952;2023-02-24T06:34:25;101273.34;;;8.78;60.34
46944;BME280;32678;43.852;25.952;2023-02-24T06:39:22;101273.84;;;8.48;61.51
46944;BME280;32678;43.852;25.952;2023-02-24T06:44:19;101258.16;;;8.49;62.18
46944;BME280;32678;43.852;25.952;2023-02-24T06:49:20;101254.34;;;8.68;61.81
46944;BME280;32678;43.852;25.952;2023-02-24T06:54:18;101249.91;;;8.72;61.51
46944;BME280;32678;43.852;25.952;2023-02-24T06:59:24;101237.88;;;8.63;61.75
46944;BME280;32678;43.852;25.952;2023-02-24T07:04:24;101253.72;;;8.54;62.61
46944;BME280;32678;43.852;25.952;2023-02-24T07:09:25;101246.78;;;8.50;63.00
46944;BME280;32678;43.852;25.952;2023-02-24T07:14:23;101242.31;;;8.60;63.91
46944;BME280;32678;43.852;25.952;2023-02-24T07:19:23;101237.88;;;8.63;64.55
46944;BME280;32678;43.852;25.952;2023-02-24T07:24:28;101238.81;;;8.59;65.09
46944;BME280;32678;43.852;25.952;2023-02-24T07:29:29;101245.09;;;8.49;66.17
46944;BME280;32678;43.852;25.952;2023-02-24T07:34:29;101235.69;;;8.39;67.48
46944;BME280;32678;43.852;25.952;2023-02-24T07:51:34;101219.94;;;8.41;69.16
46944;BME280;32678;43.852;25.952;2023-02-24T08:16:08;101226.03;;;9.36;68.58
46944;BME280;32678;43.852;25.952;2023-02-24T08:27:35;101218.38;;;9.26;69.95
46944;BME280;32678;43.852;25.952;2023-02-24T08:45:05;101215.72;;;9.69;70.23
46944;BME280;32678;43.852;25.952;2023-02-24T08:51:07;101209.59;;;9.70;70.23
46944;BME280;32678;43.852;25.952;2023-02-24T08:56:58;101207.28;;;9.56;71.21
46944;BME280;32678;43.852;25.952;2023-02-24T09:02:54;101202.41;;;9.78;70.05
46944;BME280;32678;43.852;25.952;2023-02-24T09:09:15;101208.91;;;9.62;70.37
46944;BME280;32678;43.852;25.952;2023-02-24T09:14:27;101209.81;;;9.59;71.55
46944;BME280;32678;43.852;25.952;2023-02-24T10:08:58;101154.72;;;9.25;77.52
46944;BME280;32678;43.852;25.952;2023-02-24T10:20:35;101140.63;;;9.32;77.72
46944;BME280;32678;43.852;25.952;2023-02-24T10:25:44;101125.19;;;9.20;76.88
46944;BME280;32678;43.852;25.952;2023-02-24T10:30:50;101118.63;;;8.99;79.38
46944;BME280;32678;43.852;25.952;2023-02-24T10:36:06;101112.31;;;9.09;78.94
46944;BME280;32678;43.852;25.952;2023-02-24T10:41:07;101100.31;;;9.41;78.43
46944;BME280;32678;43.852;25.952;2023-02-24T10:46:07;101097.88;;;9.33;78.84
46944;BME280;32678;43.852;25.952;2023-02-24T10:51:21;101082.56;;;9.53;79.32
46944;BME280;32678;43.852;25.952;2023-02-24T10:56:28;101063.88;;;9.32;80.57
46944;BME280;32678;43.852;25.952;2023-02-24T11:01:37;101059.09;;;9.86;78.72
46944;BME280;32678;43.852;25.952;2023-02-24T11:06:49;101052.19;;;9.48;80.22
46944;BME280;32678;43.852;25.952;2023-02-24T11:11:51;101047.03;;;9.06;81.85
46944;BME280;32678;43.852;25.952;2023-02-24T11:17:11;101048.50;;;9.18;82.42
46944;BME280;32678;43.852;25.952;2023-02-24T11:22:20;101035.16;;;9.29;81.86
46944;BME280;32678;43.852;25.952;2023-02-24T11:27:22;101012.00;;;9.49;81.56
46944;BME280;32678;43.852;25.952;2023-02-24T11:32:27;101005.88;;;9.50;82.53
46944;BME280;32678;43.852;25.952;2023-02-24T11:37:29;100979.44;;;9.25;83.75
46944;BME280;32678;43.852;25.952;2023-02-24T11:42:35;100991.59;;;9.28;82.53
46944;BME280;32678;43.852;25.952;2023-02-24T11:47:34;100990.59;;;9.33;81.59
46944;BME280;32678;43.852;25.952;2023-02-24T11:52:37;100992.16;;;9.03;83.79
46944;BME280;32678;43.852;25.952;2023-02-24T11:57:39;100976.97;;;9.19;83.31
46944;BME280;32678;43.852;25.952;2023-02-24T12:08:59;100974.22;;;9.59;82.81
46944;BME280;32678;43.852;25.952;2023-02-24T12:26:17;100954.56;;;10.09;80.62
46944;BME280;32678;43.852;25.952;2023-02-24T12:31:16;100950.09;;;10.13;79.37
46944;BME280;32678;43.852;25.952;2023-02-24T12:36:33;100947.00;;;9.98;80.57
46944;BME280;32678;43.852;25.952;2023-02-24T12:41:45;100954.28;;;10.21;79.93
46944;BME280;32678;43.852;25.952;2023-02-24T12:46:45;100950.16;;;10.11;80.53
46944;BME280;32678;43.852;25.952;2023-02-24T12:51:52;100940.44;;;10.15;80.38
46944;BME280;32678;43.852;25.952;2023-02-24T12:57:06;100940.91;;;10.30;80.53
46944;BME280;32678;43.852;25.952;2023-02-24T13:02:06;100925.34;;;10.24;80.46
46944;BME280;32678;43.852;25.952;2023-02-24T13:07:17;100916.66;;;10.52;78.89
46944;BME280;32678;43.852;25.952;2023-02-24T13:12:23;100907.63;;;10.32;79.58
46944;BME280;32678;43.852;25.952;2023-02-24T13:17:23;100893.63;;;10.61;79.57
46944;BME280;32678;43.852;25.952;2023-02-24T13:22:23;100890.06;;;10.92;78.32
46944;BME280;32678;43.852;25.952;2023-02-24T13:27:23;100871.56;;;10.68;77.32
46944;BME280;32678;43.852;25.952;2023-02-24T13:32:23;100885.81;;;10.88;78.22
46944;BME280;32678;43.852;25.952;2023-02-24T13:37:28;100878.00;;;10.86;77.71
46944;BME280;32678;43.852;25.952;2023-02-24T13:42:26;100875.47;;;11.09;77.25
46944;BME280;32678;43.852;25.952;2023-02-24T14:04:43;100838.84;;;11.06;77.11
46944;BME280;32678;43.852;25.952;2023-02-24T14:10:13;100844.44;;;11.22;76.40
46944;BME280;32678;43.852;25.952;2023-02-24T14:15:18;100843.34;;;11.03;77.82
46944;BME280;32678;43.852;25.952;2023-02-24T14:26:59;100840.69;;;11.29;77.09
46944;BME280;32678;43.852;25.952;2023-02-24T14:32:59;100831.16;;;11.26;76.67
46944;BME280;32678;43.852;25.952;2023-02-24T14:38:33;100822.59;;;11.21;77.41
46944;BME280;32678;43.852;25.952;2023-02-24T14:43:31;100820.22;;;11.39;76.70
46944;BME280;32678;43.852;25.952;2023-02-24T14:48:38;100807.84;;;11.17;77.06
46944;BME280;32678;43.852;25.952;2023-02-24T14:53:35;100809.34;;;11.24;77.30
46944;BME280;32678;43.852;25.952;2023-02-24T14:58:35;100799.66;;;11.51;76.62
46944;BME280;32678;43.852;25.952;2023-02-24T15:03:33;100805.69;;;11.78;75.74
46944;BME280;32678;43.852;25.952;2023-02-24T15:08:33;100808.91;;;11.86;74.71
46944;BME280;32678;43.852;25.952;2023-02-24T15:13:37;100799.34;;;11.84;74.20
46944;BME280;32678;43.852;25.952;2023-02-24T15:18:35;100793.56;;;11.97;74.16
46944;BME280;32678;43.852;25.952;2023-02-24T15:23:33;100792.38;;;12.06;73.62
46944;BME280;32678;43.852;25.952;2023-02-24T15:28:33;100801.53;;;12.18;73.24
46944;BME280;32678;43.852;25.952;2023-02-24T15:33:35;100789.25;;;12.18;72.76
46944;BME280;32678;43.852;25.952;2023-02-24T15:38:33;100788.50;;;12.16;72.59
46944;BME280;32678;43.852;25.952;2023-02-24T15:43:33;100795.56;;;12.14;72.79
46944;BME280;32678;43.852;25.952;2023-02-24T15:48:30;100795.34;;;12.20;72.61
46944;BME280;32678;43.852;25.952;2023-02-24T15:53:28;100788.00;;;12.28;72.30
46944;BME280;32678;43.852;25.952;2023-02-24T15:58:24;100788.03;;;12.27;72.14
46944;BME280;32678;43.852;25.952;2023-02-24T16:03:21;100777.38;;;12.31;72.05
46944;BME280;32678;43.852;25.952;2023-02-24T16:08:20;100759.63;;;12.14;72.21
46944;BME280;32678;43.852;25.952;2023-02-24T16:13:20;100762.44;;;12.32;71.97
46944;BME280;32678;43.852;25.952;2023-02-24T16:18:19;100773.25;;;12.24;72.01
46944;BME280;32678;43.852;25.952;2023-02-24T16:23:18;100782.97;;;12.22;71.93
46944;BME280;32678;43.852;25.952;2023-02-24T16:28:15;100780.97;;;11.84;73.52
46944;BME280;32678;43.852;25.952;2023-02-24T16:33:14;100764.38;;;11.58;74.26
46944;BME280;32678;43.852;25.952;2023-02-24T16:38:12;100771.16;;;11.16;75.91
46944;BME280;32678;43.852;25.952;2023-02-24T16:43:15;100797.41;;;11.16;76.43
46944;BME280;32678;43.852;25.952;2023-02-24T16:48:13;100786.03;;;10.91;77.82
46944;BME280;32678;43.852;25.952;2023-02-24T16:53:18;100783.72;;;11.08;77.25
46944;BME280;32678;43.852;25.952;2023-02-24T16:58:16;100779.34;;;11.32;76.70
46944;BME280;32678;43.852;25.952;2023-02-24T17:03:36;100773.53;;;11.23;76.39
46944;BME280;32678;43.852;25.952;2023-02-24T17:08:39;100773.28;;;11.29;76.20
46944;BME280;32678;43.852;25.952;2023-02-24T17:13:41;100770.59;;;11.33;76.05
46944;BME280;32678;43.852;25.952;2023-02-24T17:18:43;100765.72;;;11.22;76.24
46944;BME280;32678;43.852;25.952;2023-02-24T17:23:44;100753.25;;;11.28;76.21
46944;BME280;32678;43.852;25.952;2023-02-24T17:28:42;100764.31;;;11.60;75.69
46944;BME280;32678;43.852;25.952;2023-02-24T17:33:39;100759.63;;;11.68;74.39
46944;BME280;32678;43.852;25.952;2023-02-24T17:38:37;100760.47;;;11.45;74.47
46944;BME280;32678;43.852;25.952;2023-02-24T17:43:34;100760.09;;;11.56;74.28
46944;BME280;32678;43.852;25.952;2023-02-24T17:53:52;100769.69;;;11.57;73.94
46944;BME280;32678;43.852;25.952;2023-02-24T17:58:50;100771.84;;;11.69;73.65
46944;BME280;32678;43.852;25.952;2023-02-24T18:04:07;100753.81;;;11.83;73.16
46944;BME280;32678;43.852;25.952;2023-02-24T18:09:05;100763.63;;;11.55;72.71
46944;BME280;32678;43.852;25.952;2023-02-24T18:14:03;100750.47;;;11.08;73.90
46944;BME280;32678;43.852;25.952;2023-02-24T18:18:59;100749.59;;;11.08;74.36
46944;BME280;32678;43.852;25.952;2023-02-24T18:23:56;100748.44;;;10.90;74.79
46944;BME280;32678;43.852;25.952;2023-02-24T18:28:53;100747.53;;;10.40;76.95
46944;BME280;32678;43.852;25.952;2023-02-24T18:33:50;100718.31;;;9.96;78.65
46944;BME280;32678;43.852;25.952;2023-02-24T18:38:47;100728.97;;;9.90;79.76
46944;BME280;32678;43.852;25.952;2023-02-24T18:43:46;100732.69;;;9.83;80.27
46944;BME280;32678;43.852;25.952;2023-02-24T18:48:44;100737.38;;;10.02;79.34
46944;BME280;32678;43.852;25.952;2023-02-24T18:53:41;100729.44;;;10.03;79.08
46944;BME280;32678;43.852;25.952;2023-02-24T18:58:38;100737.88;;;10.13;78.84
46944;BME280;32678;43.852;25.952;2023-02-24T19:03:35;100737.94;;;10.39;78.00
46944;BME280;32678;43.852;25.952;2023-02-24T19:08:32;100728.22;;;10.16;78.11
46944;BME280;32678;43.852;25.952;2023-02-24T19:13:29;100725.09;;;9.74;79.71
46944;BME280;32678;43.852;25.952;2023-02-24T19:18:28;100724.94;;;9.51;81.18
46944;BME280;32678;43.852;25.952;2023-02-24T19:23:25;100710.25;;;9.45;81.75
46944;BME280;32678;43.852;25.952;2023-02-24T19:28:22;100715.19;;;9.56;81.36
46944;BME280;32678;43.852;25.952;2023-02-24T19:33:19;100713.63;;;9.49;81.46
46944;BME280;32678;43.852;25.952;2023-02-24T19:38:17;100715.78;;;9.66;81.76
46944;BME280;32678;43.852;25.952;2023-02-24T19:43:15;100715.03;;;10.18;80.13
46944;BME280;32678;43.852;25.952;2023-02-24T19:48:12;100712.25;;;9.94;77.70
46944;BME280;32678;43.852;25.952;2023-02-24T19:53:10;100705.50;;;9.58;79.76
46944;BME280;32678;43.852;25.952;2023-02-24T19:58:08;100692.97;;;9.40;80.71
46944;BME280;32678;43.852;25.952;2023-02-24T20:03:05;100701.00;;;9.34;81.17
46944;BME280;32678;43.852;25.952;2023-02-24T20:08:05;100686.38;;;9.85;80.32
46944;BME280;32678;43.852;25.952;2023-02-24T20:13:03;100673.84;;;9.95;78.35
46944;BME280;32678;43.852;25.952;2023-02-24T20:18:00;100672.38;;;9.86;78.16
46944;BME280;32678;43.852;25.952;2023-02-24T20:22:59;100666.66;;;10.02;78.38
46944;BME280;32678;43.852;25.952;2023-02-24T20:27:56;100663.03;;;10.32;76.81
46944;BME280;32678;43.852;25.952;2023-02-24T20:32:54;100660.53;;;10.55;75.69
46944;BME280;32678;43.852;25.952;2023-02-24T20:37:51;100660.19;;;9.85;74.54
46944;BME280;32678;43.852;25.952;2023-02-24T20:42:48;100656.44;;;9.07;78.25
46944;BME280;32678;43.852;25.952;2023-02-24T20:47:45;100654.22;;;8.94;79.40
46944;BME280;32678;43.852;25.952;2023-02-24T20:52:42;100648.72;;;8.70;82.08
46944;BME280;32678;43.852;25.952;2023-02-24T20:57:39;100653.97;;;9.01;82.17
46944;BME280;32678;43.852;25.952;2023-02-24T21:02:36;100634.25;;;9.21;80.32
46944;BME280;32678;43.852;25.952;2023-02-24T21:07:38;100628.38;;;9.12;79.86
46944;BME280;32678;43.852;25.952;2023-02-24T21:12:36;100600.28;;;8.59;81.90
46944;BME280;32678;43.852;25.952;2023-02-24T21:17:33;100615.28;;;8.51;83.03
46944;BME280;32678;43.852;25.952;2023-02-24T21:22:31;100625.16;;;8.72;82.92
46944;BME280;32678;43.852;25.952;2023-02-24T21:27:28;100621.78;;;9.29;80.30
46944;BME280;32678;43.852;25.952;2023-02-24T21:32:26;100611.31;;;9.29;79.38
46944;BME280;32678;43.852;25.952;2023-02-24T21:37:23;100603.81;;;9.46;79.77
46944;BME280;32678;43.852;25.952;2023-02-24T21:42:20;100610.09;;;9.68;77.53
46944;BME280;32678;43.852;25.952;2023-02-24T21:47:17;100604.59;;;9.77;76.15
46944;BME280;32678;43.852;25.952;2023-02-24T21:52:16;100602.38;;;9.91;74.93
46944;BME280;32678;43.852;25.952;2023-02-24T21:57:12;100596.97;;;9.70;74.44
46944;BME280;32678;43.852;25.952;2023-02-24T22:02:09;100589.53;;;9.84;74.60
46944;BME280;32678;43.852;25.952;2023-02-24T22:07:07;100592.81;;;9.90;72.19
46944;BME280;32678;43.852;25.952;2023-02-24T22:12:05;100581.59;;;9.87;72.48
46944;BME280;32678;43.852;25.952;2023-02-24T22:17:02;100570.50;;;10.05;71.83
46944;BME280;32678;43.852;25.952;2023-02-24T22:21:59;100567.84;;;10.07;71.04
46944;BME280;32678;43.852;25.952;2023-02-24T22:26:59;100562.94;;;9.96;70.52
46944;BME280;32678;43.852;25.952;2023-02-24T22:31:56;100551.63;;;9.95;70.69
46944;BME280;32678;43.852;25.952;2023-02-24T22:36:54;100546.88;;;10.07;70.53
46944;BME280;32678;43.852;25.952;2023-02-24T22:41:51;100550.69;;;10.23;70.24
46944;BME280;32678;43.852;25.952;2023-02-24T22:46:48;100544.03;;;10.13;70.00
46944;BME280;32678;43.852;25.952;2023-02-24T22:51:45;100542.34;;;10.36;69.29
46944;BME280;32678;43.852;25.952;2023-02-24T22:56:42;100534.81;;;10.27;68.88
46944;BME280;32678;43.852;25.952;2023-02-24T23:01:41;100538.44;;;10.23;68.42
46944;BME280;32678;43.852;25.952;2023-02-24T23:06:38;100522.59;;;10.02;68.17
46944;BME280;32678;43.852;25.952;2023-02-24T23:11:36;100523.28;;;9.82;69.58
46944;BME280;32678;43.852;25.952;2023-02-24T23:16:33;100514.34;;;10.12;69.41
46944;BME280;32678;43.852;25.952;2023-02-24T23:21:32;100504.50;;;9.94;68.52
46944;BME280;32678;43.852;25.952;2023-02-24T23:26:30;100500.28;;;10.16;68.13
46944;BME280;32678;43.852;25.952;2023-02-24T23:31:28;100491.06;;;10.29;67.43
46944;BME280;32678;43.852;25.952;2023-02-24T23:36:25;100498.97;;;10.28;67.58
46944;BME280;32678;43.852;25.952;2023-02-24T23:41:23;100503.88;;;10.12;67.12
46944;BME280;32678;43.852;25.952;2023-02-24T23:46:20;100500.00;;;9.97;67.44
46944;BME280;32678;43.852;25.952;2023-02-24T23:51:18;100501.56;;;9.78;67.96
46944;BME280;32678;43.852;25.952;2023-02-24T23:56:15;100502.72;;;9.70;68.67
